sensor_id;sensor_type;location;lat;lon;timestamp;temperature;humidity
18888;DHT22;9576;47.792;9.628;2023-07-08T00:03:02;19.20;99.90
18888;DHT22;9576;47.792;9.628;2023-07-08T00:06:09;19.30;99.90
18888;DHT22;9576;47.792;9.628;2023-07-08T00:09:12;19.30;99.90
18888;DHT22;9576;47.792;9.628;2023-07-08T00:12:15;19.30;99.90
18888;DHT22;9576;47.792;9.628;2023-07-08T00:15:22;19.30;99.90
18888;DHT22;9576;47.792;9.628;2023-07-08T00:18:25;19.40;99.90
18888;DHT22;9576;47.792;9.628;2023-07-08T00:21:29;19.30;99.90
18888;DHT22;9576;47.792;9.628;2023-07-08T00:24:30;19.30;99.90
18888;DHT22;9576;47.792;9.628;2023-07-08T00:27:32;19.30;99.90
18888;DHT22;9576;47.792;9.628;2023-07-08T00:30:34;19.30;99.90
18888;DHT22;9576;47.792;9.628;2023-07-08T00:33:36;19.30;99.90
18888;DHT22;9576;47.792;9.628;2023-07-08T00:36:40;19.30;99.90
18888;DHT22;9576;47.792;9.628;2023-07-08T00:39:42;19.30;99.90
18888;DHT22;9576;47.792;9.628;2023-07-08T00:42:44;19.30;99.90
18888;DHT22;9576;47.792;9.628;2023-07-08T00:45:49;19.30;99.90
18888;DHT22;9576;47.792;9.628;2023-07-08T00:48:56;19.30;99.90
18888;DHT22;9576;47.792;9.628;2023-07-08T00:52:19;19.30;99.90
18888;DHT22;9576;47.792;9.628;2023-07-08T00:55:21;19.40;99.90
18888;DHT22;9576;47.792;9.628;2023-07-08T00:58:25;19.40;99.90
18888;DHT22;9576;47.792;9.628;2023-07-08T01:01:29;19.30;99.90
18888;DHT22;9576;47.792;9.628;2023-07-08T01:04:37;19.30;99.90
18888;DHT22;9576;47.792;9.628;2023-07-08T01:07:47;19.30;99.90
18888;DHT22;9576;47.792;9.628;2023-07-08T01:10:53;19.20;99.90
18888;DHT22;9576;47.792;9.628;2023-07-08T01:13:57;19.20;99.90
18888;DHT22;9576;47.792;9.628;2023-07-08T01:17:01;19.20;99.90
18888;DHT22;9576;47.792;9.628;2023-07-08T01:20:05;19.10;99.90
18888;DHT22;9576;47.792;9.628;2023-07-08T01:23:09;19.10;99.90
18888;DHT22;9576;47.792;9.628;2023-07-08T01:26:11;19.00;99.90
18888;DHT22;9576;47.792;9.628;2023-07-08T01:29:13;19.00;99.90
18888;DHT22;9576;47.792;9.628;2023-07-08T01:32:15;18.90;99.90
18888;DHT22;9576;47.792;9.628;2023-07-08T01:35:20;19.00;99.90
18888;DHT22;9576;47.792;9.628;2023-07-08T01:38:26;18.90;99.90
18888;DHT22;9576;47.792;9.628;2023-07-08T01:41:29;18.90;99.90
18888;DHT22;9576;47.792;9.628;2023-07-08T01:44:32;18.80;99.90
18888;DHT22;9576;47.792;9.628;2023-07-08T01:47:34;18.70;99.90
18888;DHT22;9576;47.792;9.628;2023-07-08T01:50:39;18.60;99.90
18888;DHT22;9576;47.792;9.628;2023-07-08T01:53:43;18.60;99.90
18888;DHT22;9576;47.792;9.628;2023-07-08T01:56:45;18.70;99.90
18888;DHT22;9576;47.792;9.628;2023-07-08T01:59:47;18.70;99.90
18888;DHT22;9576;47.792;9.628;2023-07-08T02:02:50;18.80;99.90
18888;DHT22;9576;47.792;9.628;2023-07-08T02:05:52;19.00;99.90
18888;DHT22;9576;47.792;9.628;2023-07-08T02:08:57;19.10;99.90
18888;DHT22;9576;47.792;9.628;2023-07-08T02:11:59;19.20;99.90
18888;DHT22;9576;47.792;9.628;2023-07-08T02:15:02;19.30;99.90
18888;DHT22;9576;47.792;9.628;2023-07-08T02:18:04;19.30;99.90
18888;DHT22;9576;47.792;9.628;2023-07-08T02:21:06;19.40;99.90
18888;DHT22;9576;47.792;9.628;2023-07-08T02:24:10;19.50;99.90
18888;DHT22;9576;47.792;9.628;2023-07-08T02:27:12;19.50;99.90
18888;DHT22;9576;47.792;9.628;2023-07-08T02:30:14;19.50;99.90
18888;DHT22;9576;47.792;9.628;2023-07-08T02:33:16;19.50;99.90
18888;DHT22;9576;47.792;9.628;2023-07-08T02:36:19;19.40;99.90
18888;DHT22;9576;47.792;9.628;2023-07-08T02:39:22;19.50;99.90
18888;DHT22;9576;47.792;9.628;2023-07-08T02:42:24;19.50;99.90
18888;DHT22;9576;47.792;9.628;2023-07-08T02:45:26;19.60;99.90
18888;DHT22;9576;47.792;9.628;2023-07-08T02:48:28;19.70;99.90
18888;DHT22;9576;47.792;9.628;2023-07-08T02:51:30;19.80;99.90
18888;DHT22;9576;47.792;9.628;2023-07-08T02:54:33;19.90;99.90
18888;DHT22;9576;47.792;9.628;2023-07-08T02:57:35;19.90;99.90
18888;DHT22;9576;47.792;9.628;2023-07-08T03:00:37;20.00;99.90
18888;DHT22;9576;47.792;9.628;2023-07-08T03:03:41;20.00;99.90
18888;DHT22;9576;47.792;9.628;2023-07-08T03:06:44;20.00;99.90
18888;DHT22;9576;47.792;9.628;2023-07-08T03:09:48;20.00;99.90
18888;DHT22;9576;47.792;9.628;2023-07-08T03:12:50;20.00;99.90
18888;DHT22;9576;47.792;9.628;2023-07-08T03:15:52;20.00;99.90
18888;DHT22;9576;47.792;9.628;2023-07-08T03:18:55;19.80;99.90
18888;DHT22;9576;47.792;9.628;2023-07-08T03:21:57;19.70;99.90
18888;DHT22;9576;47.792;9.628;2023-07-08T03:25:00;19.60;99.90
18888;DHT22;9576;47.792;9.628;2023-07-08T03:28:03;19.60;99.90
18888;DHT22;9576;47.792;9.628;2023-07-08T03:31:08;19.70;99.90
18888;DHT22;9576;47.792;9.628;2023-07-08T03:34:10;19.70;99.90
18888;DHT22;9576;47.792;9.628;2023-07-08T03:37:12;19.70;99.90
18888;DHT22;9576;47.792;9.628;2023-07-08T03:40:15;19.70;99.90
18888;DHT22;9576;47.792;9.628;2023-07-08T03:43:17;19.70;99.90
18888;DHT22;9576;47.792;9.628;2023-07-08T03:46:20;19.80;99.90
18888;DHT22;9576;47.792;9.628;2023-07-08T03:49:23;19.90;99.90
18888;DHT22;9576;47.792;9.628;2023-07-08T03:52:25;19.90;99.90
18888;DHT22;9576;47.792;9.628;2023-07-08T03:55:28;19.90;99.90
18888;DHT22;9576;47.792;9.628;2023-07-08T03:58:30;19.80;99.90
18888;DHT22;9576;47.792;9.628;2023-07-08T04:01:32;19.90;99.90
18888;DHT22;9576;47.792;9.628;2023-07-08T04:04:34;19.90;99.90
18888;DHT22;9576;47.792;9.628;2023-07-08T04:07:36;20.00;99.90
18888;DHT22;9576;47.792;9.628;2023-07-08T04:10:39;20.00;99.90
18888;DHT22;9576;47.792;9.628;2023-07-08T04:13:41;20.00;99.90
18888;DHT22;9576;47.792;9.628;2023-07-08T04:16:49;19.90;99.90
18888;DHT22;9576;47.792;9.628;2023-07-08T04:19:52;19.80;99.90
18888;DHT22;9576;47.792;9.628;2023-07-08T04:22:57;19.70;99.90
18888;DHT22;9576;47.792;9.628;2023-07-08T04:26:01;19.60;99.90
18888;DHT22;9576;47.792;9.628;2023-07-08T04:29:03;19.60;99.90
18888;DHT22;9576;47.792;9.628;2023-07-08T04:32:05;19.70;99.90
18888;DHT22;9576;47.792;9.628;2023-07-08T04:35:08;19.80;99.90
18888;DHT22;9576;47.792;9.628;2023-07-08T04:38:16;19.80;99.90
18888;DHT22;9576;47.792;9.628;2023-07-08T04:41:20;19.80;99.90
18888;DHT22;9576;47.792;9.628;2023-07-08T04:44:21;19.90;99.90
18888;DHT22;9576;47.792;9.628;2023-07-08T04:47:24;20.00;99.90
18888;DHT22;9576;47.792;9.628;2023-07-08T04:50:29;20.00;99.90
18888;DHT22;9576;47.792;9.628;2023-07-08T04:53:31;20.10;99.90
18888;DHT22;9576;47.792;9.628;2023-07-08T04:56:37;20.10;99.90
18888;DHT22;9576;47.792;9.628;2023-07-08T04:59:39;20.00;99.90
18888;DHT22;9576;47.792;9.628;2023-07-08T05:02:41;20.00;99.90
18888;DHT22;9576;47.792;9.628;2023-07-08T05:05:43;20.00;99.90
18888;DHT22;9576;47.792;9.628;2023-07-08T05:08:45;20.00;99.90
18888;DHT22;9576;47.792;9.628;2023-07-08T05:11:49;20.00;99.90
18888;DHT22;9576;47.792;9.628;2023-07-08T05:14:50;20.00;99.90
18888;DHT22;9576;47.792;9.628;2023-07-08T05:17:52;20.10;99.90
18888;DHT22;9576;47.792;9.628;2023-07-08T05:20:56;20.00;99.90
18888;DHT22;9576;47.792;9.628;2023-07-08T05:23:58;20.00;99.90
18888;DHT22;9576;47.792;9.628;2023-07-08T05:27:01;20.00;99.90
18888;DHT22;9576;47.792;9.628;2023-07-08T05:30:05;19.90;99.90
18888;DHT22;9576;47.792;9.628;2023-07-08T05:33:08;19.80;99.90
18888;DHT22;9576;47.792;9.628;2023-07-08T05:36:10;19.60;99.90
18888;DHT22;9576;47.792;9.628;2023-07-08T05:39:11;19.50;99.90
18888;DHT22;9576;47.792;9.628;2023-07-08T05:42:15;19.70;99.90
18888;DHT22;9576;47.792;9.628;2023-07-08T05:45:17;19.80;99.90
18888;DHT22;9576;47.792;9.628;2023-07-08T05:48:19;19.90;99.90
18888;DHT22;9576;47.792;9.628;2023-07-08T05:51:21;20.10;99.90
18888;DHT22;9576;47.792;9.628;2023-07-08T05:54:22;20.20;99.90
18888;DHT22;9576;47.792;9.628;2023-07-08T05:57:26;20.30;99.90
18888;DHT22;9576;47.792;9.628;2023-07-08T06:00:28;20.40;99.90
18888;DHT22;9576;47.792;9.628;2023-07-08T06:03:30;20.50;99.90
18888;DHT22;9576;47.792;9.628;2023-07-08T06:06:31;20.60;99.90
18888;DHT22;9576;47.792;9.628;2023-07-08T06:09:34;20.60;99.90
18888;DHT22;9576;47.792;9.628;2023-07-08T06:12:37;20.70;99.90
18888;DHT22;9576;47.792;9.628;2023-07-08T06:15:39;20.80;99.90
18888;DHT22;9576;47.792;9.628;2023-07-08T06:18:41;20.90;99.90
18888;DHT22;9576;47.792;9.628;2023-07-08T06:21:43;21.10;99.90
18888;DHT22;9576;47.792;9.628;2023-07-08T06:24:45;21.10;99.90
18888;DHT22;9576;47.792;9.628;2023-07-08T06:27:49;21.30;99.90
18888;DHT22;9576;47.792;9.628;2023-07-08T06:30:51;21.30;99.90
18888;DHT22;9576;47.792;9.628;2023-07-08T06:33:53;21.40;99.90
18888;DHT22;9576;47.792;9.628;2023-07-08T06:36:55;21.50;99.90
18888;DHT22;9576;47.792;9.628;2023-07-08T06:39:57;21.50;99.90
18888;DHT22;9576;47.792;9.628;2023-07-08T06:43:01;21.60;99.90
18888;DHT22;9576;47.792;9.628;2023-07-08T06:46:03;21.60;99.90
18888;DHT22;9576;47.792;9.628;2023-07-08T06:49:06;21.70;99.90
18888;DHT22;9576;47.792;9.628;2023-07-08T06:52:10;21.90;99.90
18888;DHT22;9576;47.792;9.628;2023-07-08T06:55:12;21.90;99.90
18888;DHT22;9576;47.792;9.628;2023-07-08T06:58:15;22.00;99.90
18888;DHT22;9576;47.792;9.628;2023-07-08T07:01:17;22.10;99.90
18888;DHT22;9576;47.792;9.628;2023-07-08T07:04:19;22.20;99.90
18888;DHT22;9576;47.792;9.628;2023-07-08T07:07:21;22.10;99.90
18888;DHT22;9576;47.792;9.628;2023-07-08T07:10:23;22.10;99.90
18888;DHT22;9576;47.792;9.628;2023-07-08T07:13:26;22.10;99.90
18888;DHT22;9576;47.792;9.628;2023-07-08T07:16:28;22.20;99.90
18888;DHT22;9576;47.792;9.628;2023-07-08T07:19:30;22.20;99.90
18888;DHT22;9576;47.792;9.628;2023-07-08T07:22:32;22.20;99.90
18888;DHT22;9576;47.792;9.628;2023-07-08T07:25:34;22.10;99.90
18888;DHT22;9576;47.792;9.628;2023-07-08T07:28:38;22.10;99.90
18888;DHT22;9576;47.792;9.628;2023-07-08T07:31:39;22.10;99.90
18888;DHT22;9576;47.792;9.628;2023-07-08T07:34:41;22.20;99.90
18888;DHT22;9576;47.792;9.628;2023-07-08T07:37:44;22.30;99.90
18888;DHT22;9576;47.792;9.628;2023-07-08T07:40:45;22.20;99.90
18888;DHT22;9576;47.792;9.628;2023-07-08T07:43:49;22.30;99.90
18888;DHT22;9576;47.792;9.628;2023-07-08T07:46:52;22.40;99.90
18888;DHT22;9576;47.792;9.628;2023-07-08T07:49:54;22.50;99.90
18888;DHT22;9576;47.792;9.628;2023-07-08T07:52:56;22.50;99.90
18888;DHT22;9576;47.792;9.628;2023-07-08T07:55:59;22.50;99.90
18888;DHT22;9576;47.792;9.628;2023-07-08T07:59:03;22.50;99.90
18888;DHT22;9576;47.792;9.628;2023-07-08T08:02:05;22.50;99.90
18888;DHT22;9576;47.792;9.628;2023-07-08T08:05:07;22.40;99.90
18888;DHT22;9576;47.792;9.628;2023-07-08T08:08:09;22.40;99.90
18888;DHT22;9576;47.792;9.628;2023-07-08T08:11:11;22.40;99.90
18888;DHT22;9576;47.792;9.628;2023-07-08T08:14:15;22.40;99.90
18888;DHT22;9576;47.792;9.628;2023-07-08T08:17:17;22.60;99.90
18888;DHT22;9576;47.792;9.628;2023-07-08T08:20:19;22.60;99.90
18888;DHT22;9576;47.792;9.628;2023-07-08T08:23:21;22.50;99.90
18888;DHT22;9576;47.792;9.628;2023-07-08T08:26:23;22.50;99.90
18888;DHT22;9576;47.792;9.628;2023-07-08T08:29:26;22.40;99.90
18888;DHT22;9576;47.792;9.628;2023-07-08T08:32:28;22.50;99.90
18888;DHT22;9576;47.792;9.628;2023-07-08T08:35:30;22.60;99.90
18888;DHT22;9576;47.792;9.628;2023-07-08T08:38:32;22.70;99.90
18888;DHT22;9576;47.792;9.628;2023-07-08T08:41:36;22.60;99.90
18888;DHT22;9576;47.792;9.628;2023-07-08T08:44:40;22.50;99.90
18888;DHT22;9576;47.792;9.628;2023-07-08T08:47:48;22.50;99.90
18888;DHT22;9576;47.792;9.628;2023-07-08T08:50:51;22.60;99.90
18888;DHT22;9576;47.792;9.628;2023-07-08T08:53:56;22.60;99.90
18888;DHT22;9576;47.792;9.628;2023-07-08T08:57:04;22.60;99.90
18888;DHT22;9576;47.792;9.628;2023-07-08T09:00:13;22.70;99.90
18888;DHT22;9576;47.792;9.628;2023-07-08T09:03:27;22.90;99.90
18888;DHT22;9576;47.792;9.628;2023-07-08T09:06:34;23.10;99.90
18888;DHT22;9576;47.792;9.628;2023-07-08T09:09:44;23.20;99.90
18888;DHT22;9576;47.792;9.628;2023-07-08T09:12:51;23.30;99.90
18888;DHT22;9576;47.792;9.628;2023-07-08T09:16:02;23.40;99.90
18888;DHT22;9576;47.792;9.628;2023-07-08T09:19:09;23.50;99.90
18888;DHT22;9576;47.792;9.628;2023-07-08T09:22:16;23.80;99.90
18888;DHT22;9576;47.792;9.628;2023-07-08T09:25:25;24.10;99.90
18888;DHT22;9576;47.792;9.628;2023-07-08T09:28:38;24.40;99.90
18888;DHT22;9576;47.792;9.628;2023-07-08T09:31:42;24.60;99.90
18888;DHT22;9576;47.792;9.628;2023-07-08T09:34:47;24.80;99.90
18888;DHT22;9576;47.792;9.628;2023-07-08T09:37:51;24.80;99.90
18888;DHT22;9576;47.792;9.628;2023-07-08T09:40:53;24.90;99.90
18888;DHT22;9576;47.792;9.628;2023-07-08T09:44:05;24.90;99.90
18888;DHT22;9576;47.792;9.628;2023-07-08T09:47:20;25.10;99.90
18888;DHT22;9576;47.792;9.628;2023-07-08T09:50:25;25.30;99.90
18888;DHT22;9576;47.792;9.628;2023-07-08T09:53:27;25.40;99.90
18888;DHT22;9576;47.792;9.628;2023-07-08T09:56:30;25.60;99.90
18888;DHT22;9576;47.792;9.628;2023-07-08T09:59:36;25.90;99.90
18888;DHT22;9576;47.792;9.628;2023-07-08T10:02:44;26.20;99.90
18888;DHT22;9576;47.792;9.628;2023-07-08T10:05:48;26.40;99.90
18888;DHT22;9576;47.792;9.628;2023-07-08T10:08:50;26.40;99.90
18888;DHT22;9576;47.792;9.628;2023-07-08T10:11:56;26.40;99.90
18888;DHT22;9576;47.792;9.628;2023-07-08T10:15:05;26.50;99.90
18888;DHT22;9576;47.792;9.628;2023-07-08T10:18:15;26.60;99.90
18888;DHT22;9576;47.792;9.628;2023-07-08T10:21:30;26.60;99.90
18888;DHT22;9576;47.792;9.628;2023-07-08T10:25:06;26.50;99.90
18888;DHT22;9576;47.792;9.628;2023-07-08T10:28:23;26.30;99.90
18888;DHT22;9576;47.792;9.628;2023-07-08T10:31:30;26.20;99.90
18888;DHT22;9576;47.792;9.628;2023-07-08T10:34:42;26.40;99.90
18888;DHT22;9576;47.792;9.628;2023-07-08T10:38:03;26.60;99.90
18888;DHT22;9576;47.792;9.628;2023-07-08T10:41:12;26.90;99.90
18888;DHT22;9576;47.792;9.628;2023-07-08T10:44:19;27.20;99.90
18888;DHT22;9576;47.792;9.628;2023-07-08T10:47:33;27.50;99.90
18888;DHT22;9576;47.792;9.628;2023-07-08T10:50:58;27.80;99.90
18888;DHT22;9576;47.792;9.628;2023-07-08T10:54:24;27.90;99.90
18888;DHT22;9576;47.792;9.628;2023-07-08T10:57:45;28.00;99.90
18888;DHT22;9576;47.792;9.628;2023-07-08T11:00:55;28.00;99.90
18888;DHT22;9576;47.792;9.628;2023-07-08T11:04:29;27.80;99.90
18888;DHT22;9576;47.792;9.628;2023-07-08T11:07:40;27.80;99.90
18888;DHT22;9576;47.792;9.628;2023-07-08T11:10:49;27.90;99.90
18888;DHT22;9576;47.792;9.628;2023-07-08T11:13:54;27.90;99.90
18888;DHT22;9576;47.792;9.628;2023-07-08T11:17:07;28.00;99.90
18888;DHT22;9576;47.792;9.628;2023-07-08T11:20:17;28.10;99.90
18888;DHT22;9576;47.792;9.628;2023-07-08T11:23:26;28.40;99.90
18888;DHT22;9576;47.792;9.628;2023-07-08T11:26:35;28.50;99.90
18888;DHT22;9576;47.792;9.628;2023-07-08T11:29:46;28.50;99.90
18888;DHT22;9576;47.792;9.628;2023-07-08T11:32:53;28.50;99.90
18888;DHT22;9576;47.792;9.628;2023-07-08T11:35:57;28.50;99.90
18888;DHT22;9576;47.792;9.628;2023-07-08T11:39:01;28.70;99.90
18888;DHT22;9576;47.792;9.628;2023-07-08T11:42:06;29.20;99.90
18888;DHT22;9576;47.792;9.628;2023-07-08T11:45:23;29.30;99.90
18888;DHT22;9576;47.792;9.628;2023-07-08T11:48:29;29.60;99.90
18888;DHT22;9576;47.792;9.628;2023-07-08T11:51:35;29.50;99.90
18888;DHT22;9576;47.792;9.628;2023-07-08T11:54:45;29.40;99.30
18888;DHT22;9576;47.792;9.628;2023-07-08T11:57:52;29.60;99.90
18888;DHT22;9576;47.792;9.628;2023-07-08T12:00:59;30.00;99.90
18888;DHT22;9576;47.792;9.628;2023-07-08T12:04:20;30.30;99.90
18888;DHT22;9576;47.792;9.628;2023-07-08T12:07:31;30.60;98.80
18888;DHT22;9576;47.792;9.628;2023-07-08T12:10:38;30.90;99.90
18888;DHT22;9576;47.792;9.628;2023-07-08T12:13:41;31.20;99.00
18888;DHT22;9576;47.792;9.628;2023-07-08T12:16:43;31.00;97.80
18888;DHT22;9576;47.792;9.628;2023-07-08T12:19:47;30.80;98.00
18888;DHT22;9576;47.792;9.628;2023-07-08T12:22:49;30.40;98.00
18888;DHT22;9576;47.792;9.628;2023-07-08T12:25:53;30.00;98.70
18888;DHT22;9576;47.792;9.628;2023-07-08T12:28:56;29.90;98.00
18888;DHT22;9576;47.792;9.628;2023-07-08T12:31:58;30.10;99.90
18888;DHT22;9576;47.792;9.628;2023-07-08T12:35:00;30.10;98.70
18888;DHT22;9576;47.792;9.628;2023-07-08T12:38:13;30.20;98.10
18888;DHT22;9576;47.792;9.628;2023-07-08T12:41:21;30.10;99.90
18888;DHT22;9576;47.792;9.628;2023-07-08T12:44:25;30.00;98.60
18888;DHT22;9576;47.792;9.628;2023-07-08T12:47:27;30.10;98.20
18888;DHT22;9576;47.792;9.628;2023-07-08T12:50:29;30.40;97.30
18888;DHT22;9576;47.792;9.628;2023-07-08T12:53:31;30.80;97.50
18888;DHT22;9576;47.792;9.628;2023-07-08T12:56:36;31.20;96.50
18888;DHT22;9576;47.792;9.628;2023-07-08T12:59:38;31.60;97.60
18888;DHT22;9576;47.792;9.628;2023-07-08T13:02:44;31.80;98.50
18888;DHT22;9576;47.792;9.628;2023-07-08T13:05:47;31.90;96.40
18888;DHT22;9576;47.792;9.628;2023-07-08T13:08:51;31.90;96.80
18888;DHT22;9576;47.792;9.628;2023-07-08T13:11:56;32.00;95.20
18888;DHT22;9576;47.792;9.628;2023-07-08T13:15:00;32.00;96.80
18888;DHT22;9576;47.792;9.628;2023-07-08T13:18:03;32.00;96.90
18888;DHT22;9576;47.792;9.628;2023-07-08T13:21:07;32.30;97.20
18888;DHT22;9576;47.792;9.628;2023-07-08T13:24:10;32.70;96.30
18888;DHT22;9576;47.792;9.628;2023-07-08T13:27:20;33.10;98.50
18888;DHT22;9576;47.792;9.628;2023-07-08T13:30:24;33.40;95.00
18888;DHT22;9576;47.792;9.628;2023-07-08T13:33:28;33.80;98.50
18888;DHT22;9576;47.792;9.628;2023-07-08T13:36:33;34.20;97.60
18888;DHT22;9576;47.792;9.628;2023-07-08T13:39:35;34.20;94.30
18888;DHT22;9576;47.792;9.628;2023-07-08T13:42:46;34.30;93.90
18888;DHT22;9576;47.792;9.628;2023-07-08T13:45:48;34.50;95.40
18888;DHT22;9576;47.792;9.628;2023-07-08T13:48:52;34.20;93.10
18888;DHT22;9576;47.792;9.628;2023-07-08T13:52:05;34.00;93.40
18888;DHT22;9576;47.792;9.628;2023-07-08T13:55:15;34.30;94.30
18888;DHT22;9576;47.792;9.628;2023-07-08T13:58:19;34.60;94.80
18888;DHT22;9576;47.792;9.628;2023-07-08T14:01:22;34.60;95.40
18888;DHT22;9576;47.792;9.628;2023-07-08T14:04:27;35.00;93.20
18888;DHT22;9576;47.792;9.628;2023-07-08T14:07:31;35.20;92.80
18888;DHT22;9576;47.792;9.628;2023-07-08T14:10:33;35.70;93.50
18888;DHT22;9576;47.792;9.628;2023-07-08T14:13:36;35.80;92.40
18888;DHT22;9576;47.792;9.628;2023-07-08T14:16:41;36.30;90.60
18888;DHT22;9576;47.792;9.628;2023-07-08T14:19:43;36.50;91.20
18888;DHT22;9576;47.792;9.628;2023-07-08T14:22:45;36.00;86.90
18888;DHT22;9576;47.792;9.628;2023-07-08T14:25:47;36.30;92.40
18888;DHT22;9576;47.792;9.628;2023-07-08T14:28:50;36.60;90.10
18888;DHT22;9576;47.792;9.628;2023-07-08T14:31:52;36.90;85.40
18888;DHT22;9576;47.792;9.628;2023-07-08T14:34:56;37.30;88.80
18888;DHT22;9576;47.792;9.628;2023-07-08T14:37:58;37.70;87.40
18888;DHT22;9576;47.792;9.628;2023-07-08T14:41:01;37.70;87.40
18888;DHT22;9576;47.792;9.628;2023-07-08T14:44:10;38.00;88.50
18888;DHT22;9576;47.792;9.628;2023-07-08T14:47:19;38.00;81.60
18888;DHT22;9576;47.792;9.628;2023-07-08T14:50:21;38.10;85.20
18888;DHT22;9576;47.792;9.628;2023-07-08T14:53:23;38.50;81.60
18888;DHT22;9576;47.792;9.628;2023-07-08T14:56:25;38.70;85.20
18888;DHT22;9576;47.792;9.628;2023-07-08T14:59:32;39.20;80.20
18888;DHT22;9576;47.792;9.628;2023-07-08T15:02:35;38.80;73.10
18888;DHT22;9576;47.792;9.628;2023-07-08T15:05:39;38.30;74.00
18888;DHT22;9576;47.792;9.628;2023-07-08T15:08:42;38.10;74.50
18888;DHT22;9576;47.792;9.628;2023-07-08T15:11:45;38.50;75.40
18888;DHT22;9576;47.792;9.628;2023-07-08T15:14:49;39.00;75.70
18888;DHT22;9576;47.792;9.628;2023-07-08T15:17:51;39.20;72.10
18888;DHT22;9576;47.792;9.628;2023-07-08T15:20:52;39.60;74.30
18888;DHT22;9576;47.792;9.628;2023-07-08T15:23:54;40.10;74.80
18888;DHT22;9576;47.792;9.628;2023-07-08T15:26:56;40.50;71.30
18888;DHT22;9576;47.792;9.628;2023-07-08T15:30:00;40.70;73.30
18888;DHT22;9576;47.792;9.628;2023-07-08T15:33:02;41.00;71.20
18888;DHT22;9576;47.792;9.628;2023-07-08T15:36:04;41.00;73.50
18888;DHT22;9576;47.792;9.628;2023-07-08T15:39:06;39.90;70.80
18888;DHT22;9576;47.792;9.628;2023-07-08T15:42:11;39.20;73.20
18888;DHT22;9576;47.792;9.628;2023-07-08T15:45:18;39.50;70.60
18888;DHT22;9576;47.792;9.628;2023-07-08T15:48:21;40.30;71.40
18888;DHT22;9576;47.792;9.628;2023-07-08T15:51:23;40.80;67.90
18888;DHT22;9576;47.792;9.628;2023-07-08T15:54:25;41.30;65.80
18888;DHT22;9576;47.792;9.628;2023-07-08T15:57:27;41.20;66.50
18888;DHT22;9576;47.792;9.628;2023-07-08T16:00:32;41.60;69.30
18888;DHT22;9576;47.792;9.628;2023-07-08T16:03:36;41.90;68.30
18888;DHT22;9576;47.792;9.628;2023-07-08T16:06:38;42.20;66.30
18888;DHT22;9576;47.792;9.628;2023-07-08T16:09:40;42.50;67.20
18888;DHT22;9576;47.792;9.628;2023-07-08T16:12:42;42.50;65.70
18888;DHT22;9576;47.792;9.628;2023-07-08T16:15:46;42.00;64.30
18888;DHT22;9576;47.792;9.628;2023-07-08T16:18:48;41.70;66.30
18888;DHT22;9576;47.792;9.628;2023-07-08T16:21:50;42.10;63.40
18888;DHT22;9576;47.792;9.628;2023-07-08T16:24:52;42.40;60.90
18888;DHT22;9576;47.792;9.628;2023-07-08T16:27:54;42.90;64.60
18888;DHT22;9576;47.792;9.628;2023-07-08T16:30:58;43.20;62.90
18888;DHT22;9576;47.792;9.628;2023-07-08T16:34:01;42.90;63.80
18888;DHT22;9576;47.792;9.628;2023-07-08T16:37:04;42.80;61.70
18888;DHT22;9576;47.792;9.628;2023-07-08T16:40:14;42.90;63.00
18888;DHT22;9576;47.792;9.628;2023-07-08T16:43:21;42.90;60.70
18888;DHT22;9576;47.792;9.628;2023-07-08T16:46:26;43.00;59.80
18888;DHT22;9576;47.792;9.628;2023-07-08T16:49:28;43.20;59.60
18888;DHT22;9576;47.792;9.628;2023-07-08T16:52:32;43.50;59.10
18888;DHT22;9576;47.792;9.628;2023-07-08T16:55:35;43.90;62.10
18888;DHT22;9576;47.792;9.628;2023-07-08T16:58:37;44.20;59.70
18888;DHT22;9576;47.792;9.628;2023-07-08T17:01:42;44.10;57.70
18888;DHT22;9576;47.792;9.628;2023-07-08T17:04:44;43.40;56.90
18888;DHT22;9576;47.792;9.628;2023-07-08T17:07:46;43.10;57.70
18888;DHT22;9576;47.792;9.628;2023-07-08T17:10:48;43.50;57.20
18888;DHT22;9576;47.792;9.628;2023-07-08T17:13:50;43.50;55.80
18888;DHT22;9576;47.792;9.628;2023-07-08T17:16:53;43.50;58.70
18888;DHT22;9576;47.792;9.628;2023-07-08T17:19:56;43.30;58.70
18888;DHT22;9576;47.792;9.628;2023-07-08T17:22:58;43.10;57.80
18888;DHT22;9576;47.792;9.628;2023-07-08T17:26:00;42.90;56.70
18888;DHT22;9576;47.792;9.628;2023-07-08T17:29:02;42.60;59.70
18888;DHT22;9576;47.792;9.628;2023-07-08T17:32:07;42.10;58.30
18888;DHT22;9576;47.792;9.628;2023-07-08T17:35:11;40.80;59.30
18888;DHT22;9576;47.792;9.628;2023-07-08T17:38:19;39.10;64.90
18888;DHT22;9576;47.792;9.628;2023-07-08T17:41:22;37.30;63.80
18888;DHT22;9576;47.792;9.628;2023-07-08T17:44:23;36.00;66.70
18888;DHT22;9576;47.792;9.628;2023-07-08T17:47:27;34.40;71.50
18888;DHT22;9576;47.792;9.628;2023-07-08T17:50:29;33.40;71.30
18888;DHT22;9576;47.792;9.628;2023-07-08T17:53:31;32.80;72.50
18888;DHT22;9576;47.792;9.628;2023-07-08T17:56:36;32.40;74.30
18888;DHT22;9576;47.792;9.628;2023-07-08T17:59:39;31.90;73.90
18888;DHT22;9576;47.792;9.628;2023-07-08T18:02:42;31.60;77.60
18888;DHT22;9576;47.792;9.628;2023-07-08T18:05:45;31.30;75.40
18888;DHT22;9576;47.792;9.628;2023-07-08T18:08:47;30.80;80.00
18888;DHT22;9576;47.792;9.628;2023-07-08T18:11:49;30.50;81.50
18888;DHT22;9576;47.792;9.628;2023-07-08T18:14:50;30.10;80.70
18888;DHT22;9576;47.792;9.628;2023-07-08T18:17:56;29.80;81.20
18888;DHT22;9576;47.792;9.628;2023-07-08T18:20:58;29.60;81.40
18888;DHT22;9576;47.792;9.628;2023-07-08T18:24:00;29.30;81.80
18888;DHT22;9576;47.792;9.628;2023-07-08T18:27:02;29.00;81.70
18888;DHT22;9576;47.792;9.628;2023-07-08T18:30:04;28.80;81.30
18888;DHT22;9576;47.792;9.628;2023-07-08T18:33:12;28.60;84.60
18888;DHT22;9576;47.792;9.628;2023-07-08T18:36:15;28.40;84.80
18888;DHT22;9576;47.792;9.628;2023-07-08T18:39:17;28.20;85.20
18888;DHT22;9576;47.792;9.628;2023-07-08T18:42:19;28.10;86.90
18888;DHT22;9576;47.792;9.628;2023-07-08T18:45:21;27.90;88.60
18888;DHT22;9576;47.792;9.628;2023-07-08T18:48:25;27.80;90.30
18888;DHT22;9576;47.792;9.628;2023-07-08T18:51:37;27.70;90.80
18888;DHT22;9576;47.792;9.628;2023-07-08T18:54:40;27.40;90.50
18888;DHT22;9576;47.792;9.628;2023-07-08T18:57:42;27.30;91.70
18888;DHT22;9576;47.792;9.628;2023-07-08T19:00:44;27.20;91.50
18888;DHT22;9576;47.792;9.628;2023-07-08T19:03:47;27.10;92.70
18888;DHT22;9576;47.792;9.628;2023-07-08T19:06:49;27.00;92.20
18888;DHT22;9576;47.792;9.628;2023-07-08T19:09:51;26.90;92.50
18888;DHT22;9576;47.792;9.628;2023-07-08T19:12:54;26.70;93.40
18888;DHT22;9576;47.792;9.628;2023-07-08T19:15:56;26.50;93.10
18888;DHT22;9576;47.792;9.628;2023-07-08T19:18:59;26.20;93.60
18888;DHT22;9576;47.792;9.628;2023-07-08T19:22:02;26.00;94.80
18888;DHT22;9576;47.792;9.628;2023-07-08T19:25:05;25.80;94.90
18888;DHT22;9576;47.792;9.628;2023-07-08T19:28:15;25.60;95.20
18888;DHT22;9576;47.792;9.628;2023-07-08T19:31:19;25.40;96.00
18888;DHT22;9576;47.792;9.628;2023-07-08T19:34:23;25.20;96.50
18888;DHT22;9576;47.792;9.628;2023-07-08T19:37:25;25.10;97.10
18888;DHT22;9576;47.792;9.628;2023-07-08T19:40:27;25.00;97.30
18888;DHT22;9576;47.792;9.628;2023-07-08T19:43:29;24.90;97.80